Time;durP1;ratioP1;P1;durP2;ratioP2;P2;SDS_P1;SDS_P2;PMS_P1;PMS_P2;Temp;Humidity;BMP_temperature;BMP_pressure;BME280_temperature;BME280_humidity;BME280_pressure;Samples;Min_cycle;Max_cycle;Signal;HPM_P1;HPM_P2
2021/10/15 00:01:53;;;;;;;10.60;2.45;;;;;;;15.46;82.80;101480.50;5072197;28;20135;-38
2021/10/15 00:04:20;;;;;;;12.68;2.38;;;;;;;15.45;83.18;101474.03;5072155;28;20098;-32
2021/10/15 00:06:48;;;;;;;10.25;2.60;;;;;;;15.45;83.56;101476.03;5072364;28;20051;-32
2021/10/15 00:09:16;;;;;;;15.68;2.53;;;;;;;15.45;83.58;101474.03;5072395;28;20497;-34
2021/10/15 00:11:45;;;;;;;12.18;2.78;;;;;;;15.43;83.59;101469.88;5072559;28;20075;-33
2021/10/15 00:14:14;;;;;;;14.07;3.13;;;;;;;15.42;83.45;101474.69;5071676;28;20044;-33
2021/10/15 00:16:42;;;;;;;8.88;2.50;;;;;;;15.39;83.67;101469.69;5072393;28;20051;-33
2021/10/15 00:19:10;;;;;;;11.95;2.90;;;;;;;15.38;83.89;101467.22;5072469;28;20076;-33
2021/10/15 00:21:38;;;;;;;7.53;2.38;;;;;;;15.39;84.09;101466.03;5071927;28;20100;-33
2021/10/15 00:24:05;;;;;;;11.15;2.42;;;;;;;15.39;83.75;101463.22;5072313;28;20036;-37
2021/10/15 00:26:33;;;;;;;8.77;2.60;;;;;;;15.39;83.84;101458.44;5072327;28;20051;-33
2021/10/15 00:29:01;;;;;;;8.73;2.30;;;;;;;15.41;84.19;101456.13;5071598;28;20422;-37
2021/10/15 00:31:30;;;;;;;10.88;2.60;;;;;;;15.40;84.79;101460.09;5072257;28;20040;-34
2021/10/15 00:33:58;;;;;;;9.45;3.00;;;;;;;15.37;84.87;101452.31;5071983;28;20040;-33
2021/10/15 00:36:26;;;;;;;10.85;2.38;;;;;;;15.37;85.13;101448.69;5071568;28;20048;-32
2021/10/15 00:38:54;;;;;;;10.63;2.63;;;;;;;15.33;85.19;101448.47;5071910;28;20052;-33
2021/10/15 00:41:21;;;;;;;10.23;2.15;;;;;;;15.31;85.09;101444.31;5072238;28;20163;-34
2021/10/15 00:44:00;;;;;;;13.15;2.75;;;;;;;15.31;85.54;101436.72;5071678;28;20053;-34
2021/10/15 00:46:28;;;;;;;10.20;2.40;;;;;;;15.28;85.53;101444.94;5071914;28;20155;-39
2021/10/15 00:48:57;;;;;;;11.70;2.85;;;;;;;15.27;85.79;101427.25;5071389;28;20075;-39
2021/10/15 00:51:25;;;;;;;9.77;2.35;;;;;;;15.26;85.43;101435.97;5071858;28;20044;-33
2021/10/15 00:53:53;;;;;;;11.52;2.22;;;;;;;15.24;84.75;101419.44;5071842;28;20055;-35
2021/10/15 00:56:21;;;;;;;8.13;2.65;;;;;;;15.24;84.74;101429.84;5070512;28;20074;-32
2021/10/15 00:58:50;;;;;;;11.50;2.60;;;;;;;15.23;84.84;101431.81;5072034;28;20443;-33
2021/10/15 01:01:17;;;;;;;8.85;2.50;;;;;;;15.23;84.55;101422.56;5071232;28;20433;-33
2021/10/15 01:03:46;;;;;;;13.20;3.33;;;;;;;15.24;84.98;101425.06;5071303;28;20056;-33
2021/10/15 01:06:15;;;;;;;13.20;2.80;;;;;;;15.25;85.10;101428.69;5070931;28;20131;-33
2021/10/15 01:08:46;;;;;;;12.95;2.67;;;;;;;15.24;85.22;101421.41;5060894;28;20063;-33
2021/10/15 01:11:15;;;;;;;11.43;2.70;;;;;;;15.24;85.41;101419.44;5070899;28;20045;-33
2021/10/15 01:13:44;;;;;;;12.25;2.70;;;;;;;15.23;85.35;101419.75;5071346;28;20052;-34
2021/10/15 01:16:14;;;;;;;9.60;2.78;;;;;;;15.21;85.71;101408.81;5071297;28;20048;-33
2021/10/15 01:18:44;;;;;;;13.25;2.67;;;;;;;15.19;85.44;101413.91;5070930;28;20044;-34
2021/10/15 01:21:13;;;;;;;11.68;2.60;;;;;;;15.19;86.05;101401.88;5071082;28;20044;-35
2021/10/15 01:23:41;;;;;;;12.48;2.70;;;;;;;15.19;86.18;101399.84;5071374;28;20143;-33
2021/10/15 01:26:09;;;;;;;15.40;3.28;;;;;;;15.19;86.36;101394.25;5070802;28;20052;-33
2021/10/15 01:28:37;;;;;;;11.98;3.10;;;;;;;15.18;86.34;101394.59;5071202;28;20056;-34
2021/10/15 01:31:06;;;;;;;12.27;3.05;;;;;;;15.17;86.22;101382.50;5070357;28;20477;-33
2021/10/15 01:33:34;;;;;;;12.27;3.38;;;;;;;15.15;86.13;101391.25;5071055;28;20044;-33
2021/10/15 01:36:03;;;;;;;11.70;2.42;;;;;;;15.16;86.15;101383.66;5070835;28;20531;-33
2021/10/15 01:38:32;;;;;;;12.80;3.30;;;;;;;15.16;86.61;101378.88;5070753;28;20040;-34
2021/10/15 01:41:00;;;;;;;10.32;2.70;;;;;;;15.14;86.54;101372.72;5070820;28;20563;-33
2021/10/15 01:43:30;;;;;;;12.48;3.15;;;;;;;15.12;86.06;101366.59;5070891;28;20417;-34
2021/10/15 01:45:59;;;;;;;12.82;3.40;;;;;;;15.11;86.03;101364.09;5070424;28;20045;-33
2021/10/15 01:48:27;;;;;;;11.73;3.25;;;;;;;15.11;86.58;101359.31;5070758;28;20045;-34
2021/10/15 01:50:55;;;;;;;11.07;2.90;;;;;;;15.11;86.90;101364.09;5071065;28;20055;-33
2021/10/15 01:53:23;;;;;;;12.75;2.95;;;;;;;15.11;87.29;101358.47;5070154;28;20061;-34
2021/10/15 01:55:53;;;;;;;15.55;2.85;;;;;;;15.10;87.28;101345.56;5071115;28;20048;-34
2021/10/15 01:58:21;;;;;;;11.52;2.90;;;;;;;15.07;87.18;101363.06;5070384;28;20040;-33
2021/10/15 02:00:49;;;;;;;14.07;3.00;;;;;;;15.08;87.42;101350.66;5070203;28;20053;-33
2021/10/15 02:03:17;;;;;;;13.23;3.25;;;;;;;15.06;87.59;101347.34;5070669;28;20044;-37
2021/10/15 02:05:46;;;;;;;10.48;2.75;;;;;;;15.05;87.11;101356.91;5071206;28;20032;-35
2021/10/15 02:08:13;;;;;;;11.65;2.60;;;;;;;15.01;87.53;101339.84;5070005;28;20040;-34
2021/10/15 02:10:42;;;;;;;10.40;2.95;;;;;;;15.01;87.56;101342.66;5071145;28;20044;-35
2021/10/15 02:13:11;;;;;;;11.68;2.92;;;;;;;14.99;87.90;101344.13;5070015;28;20056;-36
2021/10/15 02:15:39;;;;;;;12.70;3.00;;;;;;;14.99;88.31;101350.56;5071194;28;20075;-39
2021/10/15 02:18:06;;;;;;;10.48;3.28;;;;;;;14.98;88.76;101345.31;5071860;28;20052;-40
2021/10/15 02:20:34;;;;;;;10.98;3.28;;;;;;;14.95;88.54;101323.44;5074288;28;20045;-38
2021/10/15 02:23:02;;;;;;;10.20;3.10;;;;;;;14.95;88.78;101324.28;5074439;28;20047;-33
2021/10/15 02:25:30;;;;;;;12.95;3.58;;;;;;;14.95;89.19;101321.47;5074474;28;20416;-32
2021/10/15 02:27:58;;;;;;;9.93;3.33;;;;;;;14.94;88.82;101321.78;5073983;28;20053;-34
2021/10/15 02:30:28;;;;;;;11.07;2.90;;;;;;;14.92;89.28;101322.09;5074599;28;20037;-34
2021/10/15 02:32:58;;;;;;;12.55;3.53;;;;;;;14.91;89.89;101317.63;5074850;28;20113;-33
2021/10/15 02:35:26;;;;;;;14.32;3.70;;;;;;;14.89;89.66;101311.50;5074047;28;20074;-33
2021/10/15 02:37:56;;;;;;;9.43;3.22;;;;;;;14.88;89.13;101303.38;5074497;28;20048;-34
2021/10/15 02:40:24;;;;;;;9.98;3.30;;;;;;;14.88;89.57;101303.38;5074119;28;20055;-33
2021/10/15 02:42:52;;;;;;;17.70;3.83;;;;;;;14.89;89.38;101305.03;5073768;28;20091;-34
2021/10/15 02:45:21;;;;;;;12.27;3.58;;;;;;;14.89;89.63;101291.81;5074108;28;20045;-35
2021/10/15 02:47:51;;;;;;;13.80;3.55;;;;;;;14.88;89.78;101294.94;5074377;28;20131;-33
2021/10/15 02:50:18;;;;;;;9.13;2.85;;;;;;;14.88;90.09;101292.13;5073441;28;20048;-33
2021/10/15 02:52:46;;;;;;;11.57;3.10;;;;;;;14.88;90.26;101292.13;5074315;28;20048;-34
2021/10/15 02:55:14;;;;;;;11.70;3.20;;;;;;;14.90;91.00;101298.28;5073648;28;20051;-33
2021/10/15 02:57:41;;;;;;;11.93;2.97;;;;;;;14.89;91.75;101299.41;5073531;28;20041;-34
2021/10/15 03:00:10;;;;;;;14.52;3.20;;;;;;;14.88;91.51;101290.16;5073783;28;20067;-32
2021/10/15 03:02:38;;;;;;;10.18;3.00;;;;;;;14.89;91.33;101282.56;5073422;28;20500;-33
2021/10/15 03:05:08;;;;;;;11.15;3.50;;;;;;;14.90;91.52;101293.47;5073603;28;20090;-33
2021/10/15 03:07:36;;;;;;;9.95;3.20;;;;;;;14.90;91.68;101293.47;5073795;28;20037;-33
2021/10/15 03:10:05;;;;;;;10.82;3.00;;;;;;;14.85;92.38;101284.34;5073273;28;20051;-33
2021/10/15 03:12:33;;;;;;;13.40;3.97;;;;;;;14.77;93.88;101277.50;5073912;28;20057;-32
2021/10/15 03:15:00;;;;;;;12.13;3.28;;;;;;;14.71;94.20;101285.22;5073333;28;20052;-35
2021/10/15 03:17:28;;;;;;;10.75;3.10;;;;;;;14.68;94.64;101280.22;5073149;28;20045;-33
2021/10/15 03:19:56;;;;;;;11.25;3.08;;;;;;;14.63;95.74;101285.97;5073511;28;20106;-33
2021/10/15 03:22:25;;;;;;;14.10;3.80;;;;;;;14.57;96.88;101290.06;5073693;28;21043;-33
2021/10/15 03:24:52;;;;;;;11.80;3.25;;;;;;;14.52;97.20;101292.97;5072987;28;20119;-33
2021/10/15 03:27:20;;;;;;;13.52;3.50;;;;;;;14.45;98.42;101293.38;5073381;28;20045;-33
2021/10/15 03:29:48;;;;;;;16.98;4.05;;;;;;;14.40;98.52;101301.91;5073076;28;20048;-34
2021/10/15 03:32:16;;;;;;;9.88;3.53;;;;;;;14.35;99.36;101298.38;5072654;28;20049;-34
2021/10/15 03:34:43;;;;;;;14.00;3.83;;;;;;;14.28;100.00;101293.19;5073140;28;20040;-33
2021/10/15 03:37:11;;;;;;;15.38;4.43;;;;;;;14.23;100.00;101298.88;5073475;28;20067;-39
2021/10/15 03:39:40;;;;;;;13.90;3.53;;;;;;;14.16;100.00;101283.63;5073145;28;20048;-38
2021/10/15 03:42:08;;;;;;;15.82;3.50;;;;;;;14.10;100.00;101297.75;5073281;28;20085;-35
2021/10/15 03:44:36;;;;;;;13.20;3.80;;;;;;;14.05;100.00;101292.25;5072773;28;20532;-33
2021/10/15 03:47:04;;;;;;;12.80;3.83;;;;;;;14.01;100.00;101282.78;5072623;28;20554;-33
2021/10/15 03:49:31;;;;;;;13.48;3.95;;;;;;;13.95;100.00;101284.06;5073424;28;20053;-33
2021/10/15 03:51:59;;;;;;;10.63;3.40;;;;;;;13.93;100.00;101291.13;5072429;28;20048;-33
2021/10/15 03:54:27;;;;;;;13.55;4.13;;;;;;;13.88;100.00;101292.03;5072048;28;20067;-35
2021/10/15 03:56:56;;;;;;;13.57;3.70;;;;;;;13.86;100.00;101297.13;5072853;28;20041;-32
2021/10/15 03:59:24;;;;;;;13.57;3.63;;;;;;;13.85;100.00;101300.25;5061753;28;20078;-33
2021/10/15 04:01:51;;;;;;;12.75;4.00;;;;;;;13.85;100.00;101286.22;5072433;28;20048;-33
2021/10/15 04:04:19;;;;;;;17.25;3.90;;;;;;;13.84;100.00;101302.22;5072961;28;20533;-33
2021/10/15 04:06:47;;;;;;;13.93;3.60;;;;;;;13.83;100.00;101294.94;5072276;28;20043;-37
2021/10/15 04:09:15;;;;;;;14.70;4.43;;;;;;;13.83;100.00;101289.34;5069546;28;20056;-35
2021/10/15 04:11:42;;;;;;;11.90;3.80;;;;;;;13.85;100.00;101292.66;5072598;28;20048;-39
2021/10/15 04:14:12;;;;;;;15.90;3.75;;;;;;;13.86;100.00;101302.75;5071817;28;20132;-34
2021/10/15 04:16:39;;;;;;;11.75;3.25;;;;;;;13.85;100.00;101303.06;5073036;28;20079;-36
2021/10/15 04:19:07;;;;;;;14.20;2.42;;;;;;;13.80;100.00;101321.63;5072811;28;20781;-36
2021/10/15 04:21:35;;;;;;;9.40;1.75;;;;;;;13.67;100.00;101316.00;5071931;28;20494;-33
2021/10/15 04:24:03;;;;;;;7.20;1.40;;;;;;;13.40;100.00;101333.59;5071948;28;20045;-34
2021/10/15 04:26:31;;;;;;;8.23;1.23;;;;;;;13.16;100.00;101338.50;5072296;28;20056;-35
2021/10/15 04:28:59;;;;;;;5.53;0.95;;;;;;;12.96;100.00;101351.66;5072292;28;20052;-35
2021/10/15 04:31:28;;;;;;;7.90;1.45;;;;;;;12.83;100.00;101362.78;5072200;28;20055;-34
2021/10/15 04:33:56;;;;;;;7.82;1.00;;;;;;;12.68;100.00;101372.22;5071552;28;20059;-34
2021/10/15 04:36:23;;;;;;;5.15;0.82;;;;;;;12.49;100.00;101369.41;5072136;28;20396;-34
2021/10/15 04:38:51;;;;;;;10.20;1.60;;;;;;;12.32;100.00;101374.66;5072112;28;20123;-34
2021/10/15 04:41:19;;;;;;;8.20;1.75;;;;;;;12.20;100.00;101383.47;5070613;28;20048;-33
2021/10/15 04:43:47;;;;;;;7.70;1.23;;;;;;;12.12;100.00;101377.69;5071823;28;20131;-33
2021/10/15 04:46:14;;;;;;;13.23;1.50;;;;;;;12.05;100.00;101380.84;5071970;28;20080;-34
2021/10/15 04:48:44;;;;;;;7.78;1.20;;;;;;;12.00;100.00;101389.28;5070847;28;20040;-33
2021/10/15 04:51:12;;;;;;;5.95;1.23;;;;;;;11.94;100.00;101393.28;5071899;28;20055;-32
2021/10/15 04:53:40;;;;;;;8.13;1.08;;;;;;;11.89;100.00;101390.53;5071569;28;20168;-33
2021/10/15 04:56:07;;;;;;;5.72;1.10;;;;;;;11.84;100.00;101393.38;5071304;28;20055;-33
2021/10/15 04:58:35;;;;;;;7.78;0.88;;;;;;;11.80;100.00;101390.31;5071240;28;20044;-38
2021/10/15 05:01:03;;;;;;;9.68;1.50;;;;;;;11.80;100.00;101393.13;5072071;28;20119;-33
2021/10/15 05:03:32;;;;;;;7.45;1.10;;;;;;;11.77;100.00;101392.91;5070843;28;20055;-34
2021/10/15 05:06:01;;;;;;;6.85;1.23;;;;;;;11.69;100.00;101411.94;5070623;28;20060;-35
2021/10/15 05:08:31;;;;;;;6.85;0.90;;;;;;;11.60;100.00;101410.88;5071319;28;20040;-35
2021/10/15 05:10:59;;;;;;;8.65;1.00;;;;;;;11.57;100.00;101419.03;5071123;28;20136;-36
2021/10/15 05:13:27;;;;;;;6.00;1.50;;;;;;;11.56;100.00;101436.94;5071190;28;20087;-33
2021/10/15 05:15:55;;;;;;;6.30;1.00;;;;;;;11.52;100.00;101438.63;5071237;28;20136;-33
2021/10/15 05:18:23;;;;;;;6.20;0.80;;;;;;;11.43;100.00;101434.78;5070696;28;20052;-34
2021/10/15 05:20:51;;;;;;;5.47;0.80;;;;;;;11.37;100.00;101434.00;5069731;28;20075;-32
2021/10/15 05:23:20;;;;;;;6.43;1.02;;;;;;;11.33;100.00;101428.16;5070860;28;20040;-33
2021/10/15 05:25:47;;;;;;;6.70;1.30;;;;;;;11.32;100.00;101432.06;5070858;28;20052;-32
2021/10/15 05:28:15;;;;;;;6.60;1.08;;;;;;;11.33;100.00;101428.16;5071332;28;20048;-33
2021/10/15 05:30:44;;;;;;;8.93;1.20;;;;;;;11.34;100.00;101429.00;5070361;28;20129;-33
2021/10/15 05:33:11;;;;;;;6.25;0.98;;;;;;;11.35;100.00;101428.72;5071072;28;20048;-34
2021/10/15 05:35:39;;;;;;;8.52;1.35;;;;;;;11.37;100.00;101434.00;5071216;28;20382;-33
2021/10/15 05:38:07;;;;;;;4.93;1.00;;;;;;;11.38;100.00;101427.28;5071022;28;20067;-36
2021/10/15 05:40:36;;;;;;;9.88;1.35;;;;;;;11.39;100.00;101438.16;5070689;28;20082;-34
2021/10/15 05:43:03;;;;;;;6.07;1.10;;;;;;;11.38;100.00;101433.72;5071083;28;20044;-33
2021/10/15 05:45:31;;;;;;;8.65;1.30;;;;;;;11.38;100.00;101447.69;5070121;28;20051;-34
2021/10/15 05:47:59;;;;;;;7.20;1.17;;;;;;;11.37;100.00;101439.59;5060082;28;20513;-33
2021/10/15 05:50:29;;;;;;;6.95;1.25;;;;;;;11.35;100.00;101439.88;5070660;28;20402;-34
2021/10/15 05:53:03;;;;;;;9.52;1.10;;;;;;;11.35;100.00;101450.22;5070404;28;20052;-33
2021/10/15 05:55:36;;;;;;;6.65;1.00;;;;;;;11.31;100.00;101455.56;5070755;28;20045;-33
2021/10/15 06:00:49;;;;;;;8.35;1.35;;;;;;;11.27;100.00;101471.22;5070179;28;20041;-39
2021/10/15 06:03:22;;;;;;;7.95;1.02;;;;;;;11.27;100.00;101479.59;5068932;28;20098;-34
2021/10/15 06:14:19;;;;;;;4.03;0.80;;;;;;;11.21;100.00;101477.94;5069418;28;20139;-34
2021/10/15 06:16:50;;;;;;;6.00;0.77;;;;;;;11.19;100.00;101474.59;5070112;28;20508;-33
2021/10/15 06:19:20;;;;;;;7.35;1.20;;;;;;;11.17;100.00;101476.03;5070167;28;20103;-33
2021/10/15 06:21:48;;;;;;;7.07;1.10;;;;;;;11.15;100.00;101484.72;5070048;28;20123;-33
2021/10/15 06:24:16;;;;;;;8.15;1.27;;;;;;;11.14;100.00;101499.81;5070490;28;20041;-34
2021/10/15 06:26:44;;;;;;;8.73;1.08;;;;;;;11.15;100.00;101498.69;5069765;28;20056;-40
2021/10/15 06:29:13;;;;;;;8.52;1.00;;;;;;;11.15;100.00;101493.09;5070676;28;20053;-36
2021/10/15 06:31:42;;;;;;;9.65;1.45;;;;;;;11.19;100.00;101501.72;5070032;28;20494;-33
2021/10/15 06:34:09;;;;;;;13.65;1.40;;;;;;;11.20;100.00;101501.41;5070152;28;20036;-33
2021/10/15 06:36:37;;;;;;;7.35;1.45;;;;;;;11.24;100.00;101510.91;5070453;28;20414;-34
2021/10/15 06:39:05;;;;;;;10.75;1.52;;;;;;;11.26;100.00;101503.06;5069243;28;20047;-32
2021/10/15 06:41:33;;;;;;;9.02;1.35;;;;;;;11.29;100.00;101501.66;5069759;28;20585;-34
2021/10/15 06:44:06;;;;;;;;;;;;;;;11.28;99.99;101509.22;5069710;28;20501;-33
2021/10/15 06:46:34;;;;;;;10.43;1.27;;;;;;;11.26;100.00;101508.66;5070213;28;19973;-34
2021/10/15 06:49:03;;;;;;;7.63;1.17;;;;;;;11.30;98.73;101515.34;5069531;28;20056;-36
2021/10/15 06:51:33;;;;;;;11.65;1.67;;;;;;;11.32;98.02;101529.88;5070118;28;20062;-33
2021/10/15 06:54:00;;;;;;;9.57;1.38;;;;;;;11.33;97.19;101536.28;5070278;28;20071;-35
2021/10/15 06:56:29;;;;;;;9.90;1.33;;;;;;;11.30;96.28;101537.69;5069061;28;20051;-35
2021/10/15 06:58:57;;;;;;;11.45;1.50;;;;;;;11.28;94.83;101548.31;5068165;28;20055;-31
2021/10/15 07:01:25;;;;;;;10.48;1.63;;;;;;;11.27;95.01;101549.44;5068861;28;20048;-32
2021/10/15 07:03:53;;;;;;;15.48;1.90;;;;;;;11.30;95.02;101557.25;5070089;28;20509;-35
2021/10/15 07:06:22;;;;;;;10.52;1.48;;;;;;;11.35;94.95;101570.38;5073300;28;20054;-33
2021/10/15 07:08:50;;;;;;;13.73;1.38;;;;;;;11.38;94.51;101578.19;5072356;28;20052;-33
2021/10/15 07:11:18;;;;;;;14.55;2.15;;;;;;;11.39;93.87;101580.66;5073729;28;20045;-33
2021/10/15 07:13:46;;;;;;;7.93;1.40;;;;;;;11.39;92.98;101583.47;5073368;28;20482;-36
2021/10/15 07:16:14;;;;;;;7.82;1.55;;;;;;;11.42;92.51;101586.81;5073458;28;20049;-34
2021/10/15 07:18:42;;;;;;;7.32;1.23;;;;;;;11.44;92.09;101592.94;5073332;28;20056;-36
2021/10/15 07:21:10;;;;;;;6.20;1.27;;;;;;;11.44;92.00;101596.59;5073651;28;20498;-34
2021/10/15 07:23:39;;;;;;;9.07;1.58;;;;;;;11.43;91.71;101600.50;5072662;28;20041;-34
2021/10/15 07:26:07;;;;;;;7.90;1.30;;;;;;;11.40;91.33;101592.69;5073749;28;20083;-33
2021/10/15 07:28:35;;;;;;;9.40;1.27;;;;;;;11.39;91.02;101597.44;5073410;28;20477;-33
2021/10/15 07:31:02;;;;;;;8.30;1.40;;;;;;;11.43;90.79;101602.44;5073056;28;20052;-35
2021/10/15 07:33:30;;;;;;;8.93;1.40;;;;;;;11.50;90.81;101615.00;5072102;28;20052;-35
2021/10/15 07:35:59;;;;;;;6.35;1.13;;;;;;;11.59;90.56;101616.06;5072481;28;20045;-35
2021/10/15 07:38:26;;;;;;;8.35;1.08;;;;;;;11.79;90.99;101626.31;5071809;28;20037;-34
2021/10/15 07:40:56;;;;;;;9.35;1.52;;;;;;;12.05;90.06;101646.59;5072718;28;20054;-34
2021/10/15 07:43:23;;;;;;;7.15;1.20;;;;;;;12.25;88.53;101637.22;5072201;28;20612;-37
2021/10/15 07:45:51;;;;;;;7.13;1.30;;;;;;;12.35;87.57;101637.97;5071955;28;20048;-37
2021/10/15 07:48:19;;;;;;;8.43;1.10;;;;;;;12.36;87.13;101638.81;5072538;28;20048;-34
2021/10/15 07:50:47;;;;;;;7.10;1.17;;;;;;;12.32;86.15;101649.75;5066219;28;20048;-33
2021/10/15 07:53:15;;;;;;;10.05;1.48;;;;;;;12.32;85.94;101651.72;5072270;28;20044;-33
2021/10/15 07:55:43;;;;;;;7.30;1.20;;;;;;;12.53;86.16;101653.22;5072254;28;20055;-36
2021/10/15 07:58:12;;;;;;;5.82;0.95;;;;;;;12.97;85.31;101660.66;5071842;28;20048;-35
2021/10/15 08:00:41;;;;;;;6.55;1.17;;;;;;;13.50;83.54;101666.25;5067105;28;20049;-35
2021/10/15 08:03:09;;;;;;;6.40;0.90;;;;;;;14.08;82.72;101667.69;5072326;28;20044;-33
2021/10/15 08:05:37;;;;;;;4.88;0.88;;;;;;;14.72;80.86;101676.56;5070840;28;20403;-34
2021/10/15 08:08:05;;;;;;;5.03;0.70;;;;;;;15.20;76.92;101670.59;5072549;28;20135;-35
2021/10/15 08:10:33;;;;;;;6.15;0.90;;;;;;;15.34;75.04;101691.16;5072332;28;20053;-34
2021/10/15 08:13:01;;;;;;;3.92;0.85;;;;;;;15.52;74.00;101693.03;5072436;28;20056;-35
2021/10/15 08:15:31;;;;;;;6.72;0.98;;;;;;;15.82;72.88;101694.41;5071179;28;20049;-35
2021/10/15 08:17:59;;;;;;;5.30;0.77;;;;;;;16.28;71.58;101696.19;5072608;28;20048;-33
2021/10/15 08:20:28;;;;;;;6.07;1.00;;;;;;;16.73;69.85;101702.75;5071888;28;20150;-35
2021/10/15 08:22:55;;;;;;;5.75;1.05;;;;;;;17.10;68.61;101721.22;5072700;28;20062;-34
2021/10/15 08:25:26;;;;;;;6.60;1.25;;;;;;;17.44;68.11;101727.06;5072157;28;20052;-35
2021/10/15 08:27:53;;;;;;;7.55;1.20;;;;;;;17.66;67.20;101731.84;5071862;28;20060;-36
2021/10/15 08:30:21;;;;;;;5.75;0.90;;;;;;;17.64;66.90;101741.75;5072105;28;20405;-34
2021/10/15 08:32:52;;;;;;;4.85;1.10;;;;;;;17.42;66.77;101743.47;5072254;28;20051;-37
2021/10/15 08:35:21;;;;;;;6.72;1.00;;;;;;;17.25;67.41;101737.75;5071890;28;20147;-36
2021/10/15 08:37:49;;;;;;;4.78;1.08;;;;;;;17.31;66.15;101744.94;5072189;28;20048;-36
2021/10/15 08:40:17;;;;;;;4.05;0.80;;;;;;;17.58;65.53;101740.25;5071535;28;20437;-37
2021/10/15 08:42:50;;;;;;;6.50;1.30;;;;;;;17.97;63.65;101745.91;5072024;28;20055;-34
2021/10/15 08:45:18;;;;;;;7.45;1.30;;;;;;;18.35;62.26;101751.00;5057940;28;20135;-34
2021/10/15 08:47:47;;;;;;;6.80;1.70;;;;;;;18.69;60.95;101756.69;5071521;28;20040;-33
2021/10/15 08:50:36;;;;;;;9.02;1.20;;;;;;;19.26;59.99;101764.94;5071959;28;20036;-35
2021/10/15 08:53:04;;;;;;;6.28;1.17;;;;;;;19.66;58.14;101761.88;5071811;28;20063;-35
2021/10/15 08:55:32;;;;;;;7.20;1.25;;;;;;;19.97;57.80;101761.59;5056354;28;20048;-35
2021/10/15 08:58:01;;;;;;;6.95;1.10;;;;;;;20.35;56.56;101772.88;5071561;28;20052;-34
2021/10/15 09:00:30;;;;;;;5.03;1.20;;;;;;;20.70;55.10;101782.81;5071777;28;20049;-34
2021/10/15 09:03:12;;;;;;;10.05;1.73;;;;;;;20.86;52.53;101783.84;5070921;28;20155;-36
2021/10/15 09:05:42;;;;;;;6.57;1.38;;;;;;;20.50;54.55;101792.13;5071306;28;20049;-35
2021/10/15 09:08:10;;;;;;;8.07;1.80;;;;;;;19.91;54.80;101792.09;5070728;28;20559;-33
2021/10/15 09:10:38;;;;;;;5.13;1.30;;;;;;;19.18;55.35;101796.94;5071555;28;20068;-35
2021/10/15 09:13:11;;;;;;;6.32;1.15;;;;;;;18.64;57.08;101795.59;5071021;28;20394;-34
2021/10/15 09:15:38;;;;;;;7.25;1.40;;;;;;;18.55;58.13;101792.75;5071012;28;20055;-36
2021/10/15 09:18:12;;;;;;;12.70;1.77;;;;;;;18.78;56.97;101794.31;5070238;28;20049;-39
2021/10/15 09:20:43;;;;;;;8.23;1.33;;;;;;;19.07;56.61;101795.59;5071218;28;20506;-37
2021/10/15 09:23:11;;;;;;;10.30;1.63;;;;;;;19.32;55.16;101797.56;5070665;28;20498;-33
2021/10/15 09:25:41;;;;;;;11.30;2.10;;;;;;;19.54;54.07;101807.88;5071176;28;20052;-40
2021/10/15 09:28:13;;;;;;;10.70;1.95;;;;;;;19.88;53.26;101804.09;5070491;28;20132;-38
2021/10/15 09:30:43;;;;;;;11.85;2.40;;;;;;;20.27;52.25;101800.91;5070749;28;20041;-36
2021/10/15 09:33:12;;;;;;;8.68;1.63;;;;;;;20.56;50.26;101810.63;5070591;28;20102;-35
2021/10/15 09:35:39;;;;;;;4.68;1.20;;;;;;;20.66;49.24;101813.03;5071292;28;20052;-33
2021/10/15 09:38:10;;;;;;;7.30;1.45;;;;;;;20.80;47.12;101810.75;5070287;28;20413;-38
2021/10/15 09:40:43;;;;;;;6.07;1.35;;;;;;;20.87;47.13;101818.72;5071133;28;20055;-35
2021/10/15 09:43:11;;;;;;;;;;;;;;;20.99;43.55;101815.94;5071108;28;20044;-35
2021/10/15 09:45:41;;;;;;;6.80;1.58;;;;;;;21.13;47.10;101822.19;5070441;28;19925;-34
2021/10/15 09:48:21;;;;;;;7.88;1.60;;;;;;;21.32;45.23;101818.88;5070823;28;20049;-42
2021/10/15 09:51:10;;;;;;;8.63;1.70;;;;;;;21.45;43.01;101828.25;5068685;28;20051;-42
2021/10/15 09:53:40;;;;;;;8.73;1.85;;;;;;;21.31;44.89;101820.03;5070652;28;20040;-40
2021/10/15 09:56:08;;;;;;;10.35;2.30;;;;;;;21.35;45.06;101835.22;5071043;28;20063;-39
2021/10/15 09:58:36;;;;;;;7.20;1.70;;;;;;;21.44;44.35;101837.94;5069994;28;20048;-33
2021/10/15 10:01:04;;;;;;;8.25;1.60;;;;;;;21.47;43.84;101842.94;5070931;28;20048;-37
2021/10/15 10:03:33;;;;;;;7.00;1.67;;;;;;;21.49;43.26;101841.41;5070657;28;20049;-35
2021/10/15 10:06:01;;;;;;;6.20;1.48;;;;;;;21.44;42.91;101844.44;5069291;28;20044;-36
2021/10/15 10:08:29;;;;;;;7.50;1.33;;;;;;;21.44;42.32;101844.44;5070932;28;20046;-39
2021/10/15 10:10:58;;;;;;;6.72;1.40;;;;;;;21.36;41.71;101845.38;5070620;28;20048;-41
2021/10/15 10:13:26;;;;;;;6.35;1.30;;;;;;;21.28;41.50;101852.78;5069782;28;20049;-34
2021/10/15 10:15:54;;;;;;;9.35;1.85;;;;;;;21.29;41.27;101847.94;5070556;28;20064;-39
2021/10/15 10:18:28;;;;;;;7.10;1.48;;;;;;;21.40;41.49;101851.19;5070548;28;20052;-35
2021/10/15 10:21:05;;;;;;;5.82;1.60;;;;;;;21.51;42.66;101856.09;5070481;28;20048;-32
2021/10/15 10:23:37;;;;;;;5.97;1.45;;;;;;;21.67;43.12;101867.63;5056449;28;20040;-35
2021/10/15 10:26:08;;;;;;;7.90;1.85;;;;;;;21.76;42.23;101856.16;5069962;28;20048;-35
2021/10/15 10:28:35;;;;;;;8.30;1.60;;;;;;;21.70;42.46;101863.25;5070421;28;20052;-37
2021/10/15 10:31:05;;;;;;;5.55;1.40;;;;;;;21.56;42.29;101870.09;5070275;28;20048;-35
2021/10/15 10:33:51;;;;;;;6.90;1.67;;;;;;;21.47;41.04;101866.47;5069917;28;20048;-34
2021/10/15 10:36:20;;;;;;;6.57;1.65;;;;;;;21.36;42.20;101872.94;5065555;28;20040;-37
2021/10/15 10:38:48;;;;;;;6.97;1.70;;;;;;;21.29;42.43;101873.50;5070975;28;20045;-39
2021/10/15 10:41:22;;;;;;;7.05;1.80;;;;;;;21.16;42.85;101883.94;5073463;28;20520;-34
2021/10/15 10:44:11;;;;;;;5.88;1.60;;;;;;;21.08;41.35;101887.66;5072792;28;20041;-38
2021/10/15 10:46:39;;;;;;;6.78;1.73;;;;;;;20.88;42.59;101899.84;5068545;28;20051;-40
2021/10/15 10:49:22;;;;;;;7.72;2.25;;;;;;;20.63;41.83;101899.63;5074378;28;20052;-42
2021/10/15 10:52:20;;;;;;;11.45;1.60;;;;;;;20.68;41.34;101903.47;5074119;28;20052;-40
2021/10/15 10:54:48;;;;;;;6.57;1.40;;;;;;;20.75;42.47;101898.91;5061394;28;20048;-42
2021/10/15 10:57:26;;;;;;;9.60;1.65;;;;;;;20.77;40.27;101892.91;5073948;28;20044;-35
2021/10/15 11:00:23;;;;;;;11.45;1.70;;;;;;;20.62;39.43;101911.31;5074109;28;20052;-35
2021/10/15 11:02:53;;;;;;;5.25;1.55;;;;;;;20.36;41.68;101907.78;5073568;28;20066;-37
2021/10/15 11:05:36;;;;;;;7.22;1.50;;;;;;;20.32;40.68;101921.78;5073787;28;20066;-34
2021/10/15 11:08:27;;;;;;;7.72;1.90;;;;;;;20.24;39.29;101925.47;5073304;28;20500;-37
2021/10/15 11:11:49;;;;;;;6.25;1.42;;;;;;;20.22;40.54;101934.31;5073459;28;20459;-40
2021/10/15 11:14:52;;;;;;;7.82;1.58;;;;;;;20.23;39.62;101930.31;5066565;28;20080;-34
2021/10/15 11:17:25;;;;;;;6.70;1.20;;;;;;;20.23;41.51;101933.16;5070954;28;20135;-34
2021/10/15 11:20:16;;;;;;;7.45;1.50;;;;;;;20.32;40.25;101935.97;5073700;28;20036;-36
2021/10/15 11:22:49;;;;;;;8.50;1.30;;;;;;;20.28;42.12;101938.63;5072142;28;20051;-39
2021/10/15 11:25:17;;;;;;;6.18;1.60;;;;;;;20.36;42.24;101938.97;5073545;28;20044;-36
2021/10/15 11:27:48;;;;;;;6.30;1.60;;;;;;;20.30;41.79;101933.47;5073028;28;20064;-34
2021/10/15 11:30:18;;;;;;;7.03;1.70;;;;;;;20.26;42.00;101946.66;5073245;28;20067;-36
2021/10/15 11:32:49;;;;;;;7.00;1.40;;;;;;;20.20;42.20;101950.81;5070120;28;20063;-35
2021/10/15 11:35:23;;;;;;;7.30;1.60;;;;;;;19.93;42.31;101956.91;5073232;28;20769;-35
2021/10/15 11:37:54;;;;;;;11.30;2.15;;;;;;;19.56;43.49;101962.13;5072625;28;20059;-36
2021/10/15 11:40:26;;;;;;;7.13;1.70;;;;;;;19.13;44.40;101966.88;5073666;28;20123;-37
2021/10/15 11:42:55;;;;;;;7.70;1.58;;;;;;;18.86;45.30;101965.16;5072437;28;20532;-39